Time;durP1;ratioP1;P1;durP2;ratioP2;P2;SDS_P1;SDS_P2;PMS_P1;PMS_P2;Temp;Humidity;BMP_temperature;BMP_pressure;BME280_temperature;BME280_humidity;BME280_pressure;Samples;Min_cycle;Max_cycle;Signal;HPM_P1;HPM_P2
2022/06/28 00:01:13;;;;;;;;;;;;;;;;;;4979088;28;19969;-93
2022/06/28 00:03:38;;;;;;;;;;;;;;;;;;4947465;28;19914;-93
2022/06/28 00:06:04;;;;;;;;;;;;;;;;;;4949008;28;19921;-93
2022/06/28 00:08:29;;;;;;;;;;;;;;;;;;4970204;28;19914;-94
2022/06/28 00:10:55;;;;;;;;;;;;;;;;;;4956559;28;19925;-96
2022/06/28 00:13:20;;;;;;;;;;;;;;;;;;4957056;28;19925;-93
2022/06/28 00:18:30;;;;;;;;;;;;;;;;;;4997613;28;19998;-93
2022/06/28 00:20:55;;;;;;;;;;;;;;;;;;4965474;28;19906;-92
2022/06/28 00:23:20;;;;;;;;;;;;;;;;;;4962245;28;19961;-91
2022/06/28 00:25:46;;;;;;;;;;;;;;;;;;4959895;28;19902;-91
2022/06/28 00:28:11;;;;;;;;;;;;;;;;;;4953154;28;19997;-93
2022/06/28 00:30:36;;;;;;;;;;;;;;;;;;4978753;28;19921;-94
2022/06/28 00:33:02;;;;;;;;;;;;;;;;;;4947109;28;19918;-93
2022/06/28 00:35:27;;;;;;;;;;;;;;;;;;4962744;28;20325;-94
2022/06/28 00:37:53;;;;;;;;;;;;;;;;;;4945852;28;19914;-94
2022/06/28 00:40:18;;;;;;;;;;;;;;;;;;4945798;28;19914;-92
2022/06/28 00:42:43;;;;;;;;;;;;;;;;;;4976936;28;19914;-94
2022/06/28 00:45:09;;;;;;;;;;;;;;;;;;4976995;28;20322;-92
2022/06/28 00:47:34;;;;;;;;;;;;;;;;;;4979083;28;19984;-93
2022/06/28 00:49:59;;;;;;;;;;;;;;;;;;4977820;28;20354;-92
2022/06/28 00:52:25;;;;;;;;;;;;;;;;;;4992886;28;19914;-94
2022/06/28 00:54:51;;;;;;;;;;;;;;;;;;4976695;28;19922;-92
2022/06/28 00:57:19;;;;;;;;;;;;;;;;;;4948782;28;19918;-91
2022/06/28 00:59:45;;;;;;;;;;;;;;;;;;4944726;28;19919;-92
2022/06/28 01:02:10;;;;;;;;;;;;;;;;;;4944773;28;19941;-94
2022/06/28 01:04:35;;;;;;;;;;;;;;;;;;4945447;28;20005;-94
2022/06/28 01:07:01;;;;;;;;;;;;;;;;;;4949477;28;19925;-94
2022/06/28 01:09:28;;;;;;;;;;;;;;;;;;4982125;28;19914;-93
2022/06/28 01:11:54;;;;;;;;;;;;;;;;;;4949578;28;19937;-94
2022/06/28 01:14:19;;;;;;;;;;;;;;;;;;4989349;28;19913;-93
2022/06/28 01:16:58;;;;;;;;;;;;;;;;;;4957951;28;19918;-93
2022/06/28 01:19:40;;;;;;;;;;;;;;;;;;4952776;28;19914;-94
2022/06/28 01:22:17;;;;;;;;;;;;;;;;;;4972341;28;19914;-93
2022/06/28 01:24:45;;;;;;;;;;;;;;;;;;4981882;28;20381;-93
2022/06/28 01:27:15;;;;;;;;;;;;;;;;;;4969569;28;19925;-93
2022/06/28 01:29:40;;;;;;;;;;;;;;;;;;5015358;28;19918;-93
2022/06/28 01:32:30;;;;;;;;;;;;;;;;;;4995076;28;19906;-93
2022/06/28 01:34:58;;;;;;;;;;;;;;;;;;4967256;28;19910;-92
2022/06/28 01:37:26;;;;;;;;;;;;;;;;;;4969439;28;19906;-92
2022/06/28 01:39:51;;;;;;;;;;;;;;;;;;5001965;28;19902;-93
2022/06/28 01:42:17;;;;;;;;;;;;;;;;;;5017492;28;19938;-93
2022/06/28 01:44:43;;;;;;;;;;;;;;;;;;4968521;28;19921;-94
2022/06/28 01:47:19;;;;;;;;;;;;;;;;;;4969404;28;19934;-92
2022/06/28 01:49:57;;;;;;;;;;;;;;;;;;4983545;28;19914;-93
2022/06/28 01:52:25;;;;;;;;;;;;;;;;;;4985342;28;20010;-94
2022/06/28 01:54:51;;;;;;;;;;;;;;;;;;5016886;28;19926;-93
2022/06/28 01:57:16;;;;;;;;;;;;;;;;;;4968488;28;19902;-94
2022/06/28 01:59:51;;;;;;;;;;;;;;;;;;5017325;28;19920;-94
2022/06/28 02:02:37;;;;;;;;;;;;;;;;;;5000918;28;19929;-89
2022/06/28 02:05:34;;;;;;;;;;;;;;;;;;4991556;28;20065;-90
2022/06/28 02:08:00;;;;;;;;;;;;;;;;;;5006844;28;19906;-92
2022/06/28 02:10:33;;;;;;;;;;;;;;;;;;5000257;28;19933;-93
2022/06/28 02:12:59;;;;;;;;;;;;;;;;;;5015314;28;19938;-92
2022/06/28 02:15:24;;;;;;;;;;;;;;;;;;5010112;28;19914;-91
2022/06/28 02:17:50;;;;;;;;;;;;;;;;;;4975483;28;19914;-92
2022/06/28 02:20:15;;;;;;;;;;;;;;;;;;5008473;28;19973;-93
2022/06/28 02:22:42;;;;;;;;;;;;;;;;;;5007064;28;19915;-91
2022/06/28 02:25:08;;;;;;;;;;;;;;;;;;5010165;28;19922;-92
2022/06/28 02:27:33;;;;;;;;;;;;;;;;;;5001242;28;19918;-92
2022/06/28 02:29:59;;;;;;;;;;;;;;;;;;4978531;28;20274;-93
2022/06/28 02:32:24;;;;;;;;;;;;;;;;;;4962060;28;20255;-92
2022/06/28 02:40:23;;;;;;;;;;;;;;;;;;4932924;28;19914;-92
2022/06/28 02:42:48;;;;;;;;;;;;;;;;;;4982651;28;19917;-94
2022/06/28 02:45:13;;;;;;;;;;;;;;;;;;4956522;28;19918;-93
2022/06/28 02:47:39;;;;;;;;;;;;;;;;;;4956753;28;19921;-94
2022/06/28 02:50:04;;;;;;;;;;;;;;;;;;4965055;28;19914;-94
2022/06/28 02:52:30;;;;;;;;;;;;;;;;;;4980026;28;19916;-93
2022/06/28 02:54:55;;;;;;;;;;;;;;;;;;4979584;28;19918;-92
2022/06/28 02:57:20;;;;;;;;;;;;;;;;;;4947942;28;19918;-92
2022/06/28 02:59:46;;;;;;;;;;;;;;;;;;4977571;28;19918;-93
2022/06/28 03:02:11;;;;;;;;;;;;;;;;;;4947145;28;20376;-95
2022/06/28 03:04:37;;;;;;;;;;;;;;;;;;4947267;28;20217;-94
2022/06/28 03:07:02;;;;;;;;;;;;;;;;;;4948160;28;19914;-93
2022/06/28 03:09:28;;;;;;;;;;;;;;;;;;4962798;28;19918;-92
2022/06/28 03:11:53;;;;;;;;;;;;;;;;;;4979957;28;20362;-93
2022/06/28 03:14:18;;;;;;;;;;;;;;;;;;4963076;28;19925;-92
2022/06/28 03:16:44;;;;;;;;;;;;;;;;;;4947341;28;19993;-92
2022/06/28 03:19:09;;;;;;;;;;;;;;;;;;4995160;28;19918;-92
2022/06/28 03:21:35;;;;;;;;;;;;;;;;;;4983524;28;19937;-92
2022/06/28 03:24:00;;;;;;;;;;;;;;;;;;4964787;28;19921;-94
2022/06/28 03:26:26;;;;;;;;;;;;;;;;;;4948659;28;19911;-93
2022/06/28 03:28:53;;;;;;;;;;;;;;;;;;4962350;28;19970;-94
2022/06/28 03:31:18;;;;;;;;;;;;;;;;;;4995881;28;19930;-94
2022/06/28 03:33:44;;;;;;;;;;;;;;;;;;5014501;28;19973;-94
2022/06/28 03:36:09;;;;;;;;;;;;;;;;;;4977639;28;19921;-94
2022/06/28 03:38:39;;;;;;;;;;;;;;;;;;4962196;28;19914;-93
2022/06/28 03:41:23;;;;;;;;;;;;;;;;;;4975698;28;20169;-94
2022/06/28 03:43:54;;;;;;;;;;;;;;;;;;4973499;28;19941;-93
2022/06/28 03:46:19;;;;;;;;;;;;;;;;;;4943120;28;19918;-91
2022/06/28 03:48:50;;;;;;;;;;;;;;;;;;4961011;28;19914;-93
2022/06/28 03:51:15;;;;;;;;;;;;;;;;;;4955582;28;19949;-95
2022/06/28 03:54:01;;;;;;;;;;;;;;;;;;4958026;28;20525;-94
2022/06/28 03:56:33;;;;;;;;;;;;;;;;;;4943037;28;19921;-94
2022/06/28 03:58:59;;;;;;;;;;;;;;;;;;4943117;28;19918;-94
2022/06/28 04:01:24;;;;;;;;;;;;;;;;;;4957222;28;19997;-92
2022/06/28 04:03:50;;;;;;;;;;;;;;;;;;4941417;28;19914;-93
2022/06/28 04:06:15;;;;;;;;;;;;;;;;;;4958256;28;19925;-94
2022/06/28 04:08:41;;;;;;;;;;;;;;;;;;4931835;28;19918;-93
2022/06/28 04:11:16;;;;;;;;;;;;;;;;;;4930091;28;19914;-95
2022/06/28 04:13:43;;;;;;;;;;;;;;;;;;4930573;28;19953;-93
2022/06/28 04:16:09;;;;;;;;;;;;;;;;;;4932358;28;19941;-95
2022/06/28 04:18:35;;;;;;;;;;;;;;;;;;4933473;28;19990;-94
2022/06/28 04:21:19;;;;;;;;;;;;;;;;;;4950237;28;19936;-95
2022/06/28 04:23:49;;;;;;;;;;;;;;;;;;4931824;28;20336;-95
2022/06/28 04:26:14;;;;;;;;;;;;;;;;;;4929590;28;19914;-96
2022/06/28 04:28:41;;;;;;;;;;;;;;;;;;4946971;28;19914;-96
2022/06/28 04:31:12;;;;;;;;;;;;;;;;;;4932881;28;20012;-93
2022/06/28 04:33:37;;;;;;;;;;;;;;;;;;4948976;28;19957;-96
2022/06/28 04:36:04;;;;;;;;;;;;;;;;;;4932646;28;19914;-96
2022/06/28 04:38:31;;;;;;;;;;;;;;;;;;4962768;28;19910;-96
2022/06/28 04:41:08;;;;;;;;;;;;;;;;;;4952501;28;19952;-95
2022/06/28 04:43:56;;;;;;;;;;;;;;;;;;4977488;28;19914;-94
2022/06/28 04:46:30;;;;;;;;;;;;;;;;;;4951442;28;19925;-93
2022/06/28 04:48:58;;;;;;;;;;;;;;;;;;4953821;28;19922;-94
2022/06/28 04:51:33;;;;;;;;;;;;;;;;;;4952649;28;19934;-93
2022/06/28 04:53:58;;;;;;;;;;;;;;;;;;4952424;28;19929;-95
2022/06/28 04:56:24;;;;;;;;;;;;;;;;;;4952124;28;19937;-96
2022/06/28 04:58:50;;;;;;;;;;;;;;;;;;4968407;28;19921;-95
2022/06/28 05:01:15;;;;;;;;;;;;;;;;;;4955334;28;19915;-96
2022/06/28 05:03:48;;;;;;;;;;;;;;;;;;4954013;28;19960;-94
2022/06/28 05:06:32;;;;;;;;;;;;;;;;;;4954978;28;19918;-95
2022/06/28 05:08:58;;;;;;;;;;;;;;;;;;4952774;28;19921;-95
2022/06/28 05:11:24;;;;;;;;;;;;;;;;;;4936428;28;20381;-94
2022/06/28 05:14:11;;;;;;;;;;;;;;;;;;4941423;28;19922;-95
2022/06/28 05:16:37;;;;;;;;;;;;;;;;;;4956286;28;19938;-95
2022/06/28 05:19:06;;;;;;;;;;;;;;;;;;4956450;28;19914;-95
2022/06/28 05:21:36;;;;;;;;;;;;;;;;;;4937330;28;19982;-96
2022/06/28 05:24:05;;;;;;;;;;;;;;;;;;4953411;28;19914;-96
2022/06/28 05:26:40;;;;;;;;;;;;;;;;;;4938391;28;20279;-96
2022/06/28 05:29:13;;;;;;;;;;;;;;;;;;4938186;28;19994;-96
2022/06/28 05:31:38;;;;;;;;;;;;;;;;;;4936332;28;19998;-94
2022/06/28 05:34:04;;;;;;;;;;;;;;;;;;4952002;28;19914;-95
2022/06/28 05:36:33;;;;;;;;;;;;;;;;;;4952226;28;19914;-94
2022/06/28 05:38:59;;;;;;;;;;;;;;;;;;4934956;28;20391;-94
2022/06/28 05:41:24;;;;;;;;;;;;;;;;;;4933585;28;20281;-96
2022/06/28 05:43:50;;;;;;;;;;;;;;;;;;4870539;28;1921536;-94
2022/06/28 05:46:16;;;;;;;;;;;;;;;;;;4967525;28;19914;-94
2022/06/28 05:48:41;;;;;;;;;;;;;;;;;;4950306;28;19924;-96
2022/06/28 05:51:07;;;;;;;;;;;;;;;;;;4966103;28;19921;-94
2022/06/28 05:53:32;;;;;;;;;;;;;;;;;;4931548;28;20361;-93
2022/06/28 05:55:58;;;;;;;;;;;;;;;;;;4948102;28;19945;-95
2022/06/28 05:58:24;;;;;;;;;;;;;;;;;;4963061;28;19914;-96
2022/06/28 06:00:49;;;;;;;;;;;;;;;;;;4948548;28;20053;-96
2022/06/28 06:03:15;;;;;;;;;;;;;;;;;;4946184;28;19914;-94
2022/06/28 06:05:40;;;;;;;;;;;;;;;;;;4932712;28;20382;-94
2022/06/28 06:08:07;;;;;;;;;;;;;;;;;;4934092;28;19914;-96
2022/06/28 06:10:35;;;;;;;;;;;;;;;;;;4935984;28;19914;-94
2022/06/28 06:13:02;;;;;;;;;;;;;;;;;;4950597;28;19913;-96
2022/06/28 06:15:28;;;;;;;;;;;;;;;;;;4964835;28;19957;-92
2022/06/28 06:17:53;;;;;;;;;;;;;;;;;;4953463;28;20281;-92
2022/06/28 06:20:18;;;;;;;;;;;;;;;;;;4937095;28;20305;-94
2022/06/28 06:22:45;;;;;;;;;;;;;;;;;;4954232;28;19914;-90
2022/06/28 06:25:37;;;;;;;;;;;;;;;;;;4956069;28;19924;-92
2022/06/28 06:28:02;;;;;;;;;;;;;;;;;;4956246;28;20012;-93
2022/06/28 06:30:28;;;;;;;;;;;;;;;;;;4974091;28;19898;-92
2022/06/28 06:33:12;;;;;;;;;;;;;;;;;;4946844;28;19932;-93
2022/06/28 06:35:56;;;;;;;;;;;;;;;;;;4964925;28;19933;-91
2022/06/28 06:38:22;;;;;;;;;;;;;;;;;;4980311;28;19902;-91
2022/06/28 06:40:48;;;;;;;;;;;;;;;;;;4966694;28;19942;-94
2022/06/28 06:43:15;;;;;;;;;;;;;;;;;;4965159;28;19945;-91
2022/06/28 06:45:40;;;;;;;;;;;;;;;;;;4962695;28;19926;-90
2022/06/28 06:48:09;;;;;;;;;;;;;;;;;;4964168;28;19922;-86
2022/06/28 06:50:37;;;;;;;;;;;;;;;;;;4983440;28;19942;-94
2022/06/28 06:53:03;;;;;;;;;;;;;;;;;;4996500;28;20392;-96
2022/06/28 06:55:31;;;;;;;;;;;;;;;;;;4981270;28;19926;-94
2022/06/28 06:57:57;;;;;;;;;;;;;;;;;;4995070;28;19924;-96
2022/06/28 07:00:22;;;;;;;;;;;;;;;;;;4997032;28;19958;-91
2022/06/28 07:02:48;;;;;;;;;;;;;;;;;;4962102;28;19920;-93
2022/06/28 07:05:14;;;;;;;;;;;;;;;;;;4959115;28;19917;-93
2022/06/28 07:07:40;;;;;;;;;;;;;;;;;;4989365;28;19914;-92
2022/06/28 07:10:05;;;;;;;;;;;;;;;;;;4971668;28;19914;-90
2022/06/28 07:12:31;;;;;;;;;;;;;;;;;;4973777;28;19958;-91
2022/06/28 07:14:57;;;;;;;;;;;;;;;;;;4983061;28;19946;-91
2022/06/28 07:17:25;;;;;;;;;;;;;;;;;;4946446;28;20014;-91
2022/06/28 07:19:51;;;;;;;;;;;;;;;;;;4961409;28;20461;-91
2022/06/28 07:22:16;;;;;;;;;;;;;;;;;;4946564;28;19915;-91
2022/06/28 07:24:43;;;;;;;;;;;;;;;;;;4946185;28;19914;-92
2022/06/28 07:27:09;;;;;;;;;;;;;;;;;;4944958;28;20373;-91
2022/06/28 07:29:35;;;;;;;;;;;;;;;;;;4944525;28;19983;-91
2022/06/28 07:32:00;;;;;;;;;;;;;;;;;;4963034;28;19914;-92
2022/06/28 07:34:26;;;;;;;;;;;;;;;;;;4946038;28;20344;-94
2022/06/28 07:36:51;;;;;;;;;;;;;;;;;;4949901;28;19918;-93
2022/06/28 07:39:18;;;;;;;;;;;;;;;;;;4951845;28;20354;-93
2022/06/28 07:42:16;;;;;;;;;;;;;;;;;;4942429;28;19910;-92
2022/06/28 07:45:01;;;;;;;;;;;;;;;;;;4968314;28;19922;-93
2022/06/28 07:47:47;;;;;;;;;;;;;;;;;;4954364;28;19920;-92
2022/06/28 07:53:01;;;;;;;;;;;;;;;;;;4974534;28;20038;-95
2022/06/28 07:58:56;;;;;;;;;;;;;;;;;;4918196;29;19915;-94
2022/06/28 08:01:26;;;;;;;;;;;;;;;;;;4936324;29;19931;-90
2022/06/28 08:03:52;;;;;;;;;;;;;;;;;;4913513;29;19915;-86
2022/06/28 08:06:18;;;;;;;;;;;;;;;;;;4933578;29;19914;-90
2022/06/28 08:08:53;;;;;;;;;;;;;;;;;;4931601;29;19911;-90
2022/06/28 08:11:18;;;;;;;;;;;;;;;;;;4928474;29;19938;-89
2022/06/28 08:13:47;;;;;;;;;;;;;;;;;;4925649;29;19918;-90
2022/06/28 08:16:13;;;;;;;;;;;;;;;;;;4924547;29;20016;-90
2022/06/28 08:18:39;;;;;;;;;;;;;;;;;;4925459;29;20177;-91
2022/06/28 08:21:10;;;;;;;;;;;;;;;;;;4939582;29;19922;-90
2022/06/28 08:23:36;;;;;;;;;;;;;;;;;;4936494;29;19915;-92
2022/06/28 08:26:04;;;;;;;;;;;;;;;;;;4904226;29;20378;-92
2022/06/28 08:28:30;;;;;;;;;;;;;;;;;;4919384;29;19962;-92
2022/06/28 08:30:57;;;;;;;;;;;;;;;;;;4919715;29;19915;-88
2022/06/28 08:33:22;;;;;;;;;;;;;;;;;;4947365;28;20400;-93
2022/06/28 08:35:48;;;;;;;;;;;;;;;;;;4991269;28;19914;-91
2022/06/28 08:38:13;;;;;;;;;;;;;;;;;;4974398;28;19914;-90
2022/06/28 08:40:43;;;;;;;;;;;;;;;;;;4975363;28;19914;-89
2022/06/28 08:43:08;;;;;;;;;;;;;;;;;;4975070;28;19921;-90
2022/06/28 08:45:34;;;;;;;;;;;;;;;;;;4941326;28;19925;-90
2022/06/28 08:47:59;;;;;;;;;;;;;;;;;;4941133;28;20310;-92
2022/06/28 08:50:28;;;;;;;;;;;;;;;;;;4941576;28;20274;-90
2022/06/28 08:52:58;;;;;;;;;;;;;;;;;;4941817;28;20012;-91
2022/06/28 08:55:23;;;;;;;;;;;;;;;;;;4989095;28;19910;-90
2022/06/28 08:57:48;;;;;;;;;;;;;;;;;;4973213;28;19921;-90
2022/06/28 09:00:14;;;;;;;;;;;;;;;;;;4973424;28;19914;-91
2022/06/28 09:02:39;;;;;;;;;;;;;;;;;;4940784;28;20000;-90
2022/06/28 09:05:05;;;;;;;;;;;;;;;;;;4956996;28;19921;-91
2022/06/28 09:07:31;;;;;;;;;;;;;;;;;;4957378;28;19957;-91
2022/06/28 09:09:56;;;;;;;;;;;;;;;;;;4957363;28;20284;-91
2022/06/28 09:12:22;;;;;;;;;;;;;;;;;;4957346;28;19922;-90
2022/06/28 09:14:47;;;;;;;;;;;;;;;;;;4957655;28;19922;-90
2022/06/28 09:17:13;;;;;;;;;;;;;;;;;;4973474;28;19914;-89
2022/06/28 09:19:38;;;;;;;;;;;;;;;;;;4974878;28;19918;-92
2022/06/28 09:22:03;;;;;;;;;;;;;;;;;;4941386;28;20012;-89
2022/06/28 09:24:29;;;;;;;;;;;;;;;;;;4941552;28;19914;-88
2022/06/28 09:26:54;;;;;;;;;;;;;;;;;;4976532;28;19954;-90
2022/06/28 09:29:20;;;;;;;;;;;;;;;;;;4992561;28;19914;-90
2022/06/28 09:31:45;;;;;;;;;;;;;;;;;;4977725;28;19914;-89
2022/06/28 09:34:12;;;;;;;;;;;;;;;;;;4944417;28;19921;-90
2022/06/28 09:36:37;;;;;;;;;;;;;;;;;;4976545;28;19931;-90
2022/06/28 09:39:03;;;;;;;;;;;;;;;;;;4945869;28;19914;-89
2022/06/28 09:41:28;;;;;;;;;;;;;;;;;;4961051;28;20020;-89
2022/06/28 09:43:53;;;;;;;;;;;;;;;;;;4993159;28;19910;-88
2022/06/28 09:46:19;;;;;;;;;;;;;;;;;;4944335;28;19918;-91
2022/06/28 09:48:44;;;;;;;;;;;;;;;;;;4944364;28;19918;-90
2022/06/28 09:51:10;;;;;;;;;;;;;;;;;;4959928;28;20028;-91
2022/06/28 09:53:42;;;;;;;;;;;;;;;;;;4944646;28;19925;-90
2022/06/28 09:56:08;;;;;;;;;;;;;;;;;;4928953;28;19914;-91
2022/06/28 09:58:33;;;;;;;;;;;;;;;;;;4928426;28;19914;-91
2022/06/28 10:00:59;;;;;;;;;;;;;;;;;;4961717;28;19914;-92
2022/06/28 10:03:24;;;;;;;;;;;;;;;;;;4964288;28;19937;-92
2022/06/28 10:05:50;;;;;;;;;;;;;;;;;;4963637;28;19914;-90
2022/06/28 10:08:15;;;;;;;;;;;;;;;;;;4986961;28;19922;-92
2022/06/28 10:10:41;;;;;;;;;;;;;;;;;;4952245;28;19925;-91
2022/06/28 10:15:51;;;;;;;;;;;;;;;;;;4947488;28;19949;-91
2022/06/28 10:18:16;;;;;;;;;;;;;;;;;;4932970;28;19937;-91
2022/06/28 10:20:46;;;;;;;;;;;;;;;;;;4982536;28;19918;-91
2022/06/28 10:23:14;;;;;;;;;;;;;;;;;;4947336;28;19914;-93
2022/06/28 10:25:40;;;;;;;;;;;;;;;;;;4931017;28;19921;-92
2022/06/28 10:28:05;;;;;;;;;;;;;;;;;;4962183;28;20285;-92
2022/06/28 10:30:31;;;;;;;;;;;;;;;;;;4945641;28;19910;-92
2022/06/28 10:32:56;;;;;;;;;;;;;;;;;;4960095;28;20282;-89
2022/06/28 10:35:22;;;;;;;;;;;;;;;;;;4976569;28;20289;-89
2022/06/28 10:37:47;;;;;;;;;;;;;;;;;;4977324;28;19915;-91
2022/06/28 10:40:12;;;;;;;;;;;;;;;;;;4977246;28;20321;-89
2022/06/28 10:42:38;;;;;;;;;;;;;;;;;;4976651;28;20006;-89
2022/06/28 10:45:03;;;;;;;;;;;;;;;;;;4965995;28;19922;-89
2022/06/28 10:47:28;;;;;;;;;;;;;;;;;;4975859;28;20465;-90
2022/06/28 10:49:56;;;;;;;;;;;;;;;;;;4976717;28;19914;-89
2022/06/28 10:52:22;;;;;;;;;;;;;;;;;;4975664;28;20304;-90
2022/06/28 10:54:47;;;;;;;;;;;;;;;;;;4976185;28;19985;-90
2022/06/28 10:57:12;;;;;;;;;;;;;;;;;;4975304;28;19914;-89
2022/06/28 10:59:38;;;;;;;;;;;;;;;;;;4942433;28;19921;-90
2022/06/28 11:02:03;;;;;;;;;;;;;;;;;;4943266;28;19914;-89
2022/06/28 11:04:29;;;;;;;;;;;;;;;;;;4944101;28;20313;-89
2022/06/28 11:06:55;;;;;;;;;;;;;;;;;;4942497;28;20331;-89
2022/06/28 11:09:20;;;;;;;;;;;;;;;;;;4974913;28;19937;-91
2022/06/28 11:11:45;;;;;;;;;;;;;;;;;;4942743;28;19942;-91
2022/06/28 11:14:11;;;;;;;;;;;;;;;;;;4958852;28;20349;-90
2022/06/28 11:16:36;;;;;;;;;;;;;;;;;;4944758;28;20242;-92
2022/06/28 11:19:02;;;;;;;;;;;;;;;;;;4962421;28;19925;-89
2022/06/28 11:21:28;;;;;;;;;;;;;;;;;;4946233;28;19910;-92
2022/06/28 11:23:54;;;;;;;;;;;;;;;;;;4949190;28;19914;-90
2022/06/28 11:29:03;;;;;;;;;;;;;;;;;;4977546;28;19938;-89
2022/06/28 11:31:29;;;;;;;;;;;;;;;;;;4963007;28;19914;-90
2022/06/28 11:33:55;;;;;;;;;;;;;;;;;;4983543;28;19924;-91
2022/06/28 11:36:21;;;;;;;;;;;;;;;;;;4981965;28;19920;-89
2022/06/28 11:38:46;;;;;;;;;;;;;;;;;;4962324;28;19914;-91
2022/06/28 11:41:12;;;;;;;;;;;;;;;;;;4944553;28;20404;-90
2022/06/28 11:43:37;;;;;;;;;;;;;;;;;;4978501;28;19926;-90
2022/06/28 11:46:02;;;;;;;;;;;;;;;;;;4960223;28;20310;-90
2022/06/28 11:48:28;;;;;;;;;;;;;;;;;;4963878;28;19920;-92
2022/06/28 11:50:54;;;;;;;;;;;;;;;;;;4978365;28;19914;-91
2022/06/28 11:53:19;;;;;;;;;;;;;;;;;;4978102;28;19986;-89
2022/06/28 11:55:45;;;;;;;;;;;;;;;;;;4978600;28;19986;-90
2022/06/28 11:58:11;;;;;;;;;;;;;;;;;;4945032;28;19922;-91
2022/06/28 12:00:36;;;;;;;;;;;;;;;;;;4960984;28;19926;-91
2022/06/28 12:03:02;;;;;;;;;;;;;;;;;;4992300;28;19968;-91
2022/06/28 12:05:27;;;;;;;;;;;;;;;;;;4961216;28;19986;-90
2022/06/28 12:07:52;;;;;;;;;;;;;;;;;;4977331;28;20353;-91
2022/06/28 12:10:18;;;;;;;;;;;;;;;;;;4962838;28;20305;-92
2022/06/28 12:12:43;;;;;;;;;;;;;;;;;;4976946;28;19945;-91
2022/06/28 12:15:09;;;;;;;;;;;;;;;;;;4945986;28;20470;-90
2022/06/28 12:17:34;;;;;;;;;;;;;;;;;;4994361;28;19914;-92
2022/06/28 12:20:09;;;;;;;;;;;;;;;;;;4976492;28;19914;-94
2022/06/28 12:22:34;;;;;;;;;;;;;;;;;;4943543;28;19914;-91
2022/06/28 12:25:00;;;;;;;;;;;;;;;;;;4959633;28;19936;-93
2022/06/28 12:27:36;;;;;;;;;;;;;;;;;;4942607;28;19960;-92
2022/06/28 12:30:01;;;;;;;;;;;;;;;;;;4975832;28;19914;-92
2022/06/28 12:32:29;;;;;;;;;;;;;;;;;;4973919;28;19916;-91
2022/06/28 12:34:55;;;;;;;;;;;;;;;;;;4957432;28;19925;-89
2022/06/28 12:37:20;;;;;;;;;;;;;;;;;;4974067;28;19914;-90
2022/06/28 12:39:45;;;;;;;;;;;;;;;;;;4974741;28;19914;-88
2022/06/28 12:42:11;;;;;;;;;;;;;;;;;;4961266;28;20337;-91
2022/06/28 12:44:36;;;;;;;;;;;;;;;;;;4945832;28;19918;-91
2022/06/28 12:47:02;;;;;;;;;;;;;;;;;;4961248;28;19957;-93
2022/06/28 12:49:28;;;;;;;;;;;;;;;;;;4976398;28;19969;-91
2022/06/28 12:51:53;;;;;;;;;;;;;;;;;;4959138;28;19914;-91
2022/06/28 12:54:19;;;;;;;;;;;;;;;;;;4959148;28;19973;-91
2022/06/28 12:56:44;;;;;;;;;;;;;;;;;;4975125;28;20306;-91
2022/06/28 12:59:10;;;;;;;;;;;;;;;;;;4942592;28;20362;-91
2022/06/28 13:01:35;;;;;;;;;;;;;;;;;;4962391;28;19914;-91
2022/06/28 13:04:00;;;;;;;;;;;;;;;;;;4964001;28;19921;-90
2022/06/28 13:06:26;;;;;;;;;;;;;;;;;;4963524;28;20595;-90
2022/06/28 13:08:52;;;;;;;;;;;;;;;;;;4962928;28;20273;-91
2022/06/28 13:11:20;;;;;;;;;;;;;;;;;;4963421;28;19914;-91
2022/06/28 13:13:45;;;;;;;;;;;;;;;;;;4982110;28;19924;-91
2022/06/28 13:16:10;;;;;;;;;;;;;;;;;;4989265;28;19970;-91
2022/06/28 13:18:36;;;;;;;;;;;;;;;;;;4971334;28;19999;-93
2022/06/28 13:21:01;;;;;;;;;;;;;;;;;;4956730;28;19968;-92
2022/06/28 13:23:27;;;;;;;;;;;;;;;;;;4990452;28;20216;-91
2022/06/28 13:25:52;;;;;;;;;;;;;;;;;;4984666;28;19977;-91
2022/06/28 13:28:17;;;;;;;;;;;;;;;;;;4983247;28;19914;-92
2022/06/28 13:30:43;;;;;;;;;;;;;;;;;;4967143;28;19914;-92
2022/06/28 13:33:09;;;;;;;;;;;;;;;;;;4967107;28;19914;-92
2022/06/28 13:35:34;;;;;;;;;;;;;;;;;;4948789;28;20006;-91
2022/06/28 13:37:59;;;;;;;;;;;;;;;;;;4981341;28;20058;-90
2022/06/28 13:40:25;;;;;;;;;;;;;;;;;;4977584;28;19914;-93
2022/06/28 13:42:50;;;;;;;;;;;;;;;;;;4945431;28;19914;-91
2022/06/28 13:45:16;;;;;;;;;;;;;;;;;;4979588;28;19918;-91
2022/06/28 13:47:45;;;;;;;;;;;;;;;;;;4948357;28;19968;-92
2022/06/28 13:50:10;;;;;;;;;;;;;;;;;;4963687;28;19914;-91
2022/06/28 13:52:37;;;;;;;;;;;;;;;;;;4979697;28;19961;-92
2022/06/28 13:55:03;;;;;;;;;;;;;;;;;;4963173;28;20246;-91
2022/06/28 13:57:28;;;;;;;;;;;;;;;;;;4977356;28;19921;-90
2022/06/28 13:59:55;;;;;;;;;;;;;;;;;;4979882;28;19914;-91
2022/06/28 14:02:21;;;;;;;;;;;;;;;;;;4980871;28;19914;-92
2022/06/28 14:04:46;;;;;;;;;;;;;;;;;;4979227;28;19921;-92
2022/06/28 14:07:11;;;;;;;;;;;;;;;;;;4980891;28;19940;-92
2022/06/28 14:09:37;;;;;;;;;;;;;;;;;;4946391;28;19918;-92
2022/06/28 14:12:03;;;;;;;;;;;;;;;;;;4963010;28;19914;-92
2022/06/28 14:14:37;;;;;;;;;;;;;;;;;;4961429;28;19914;-91
2022/06/28 14:17:03;;;;;;;;;;;;;;;;;;4963637;28;19914;-93
2022/06/28 14:19:28;;;;;;;;;;;;;;;;;;4981315;28;19914;-92
2022/06/28 14:21:55;;;;;;;;;;;;;;;;;;4987340;28;19934;-92
2022/06/28 14:24:25;;;;;;;;;;;;;;;;;;4968030;28;20337;-93
2022/06/28 14:26:51;;;;;;;;;;;;;;;;;;4952456;28;19921;-93
2022/06/28 14:29:19;;;;;;;;;;;;;;;;;;4952744;28;19953;-93
2022/06/28 14:31:44;;;;;;;;;;;;;;;;;;4984039;28;20388;-92
2022/06/28 14:34:13;;;;;;;;;;;;;;;;;;4983614;28;19918;-92
2022/06/28 14:36:39;;;;;;;;;;;;;;;;;;4967496;28;19972;-93
2022/06/28 14:39:23;;;;;;;;;;;;;;;;;;4954785;28;19910;-93
2022/06/28 14:41:51;;;;;;;;;;;;;;;;;;4953288;28;19921;-93
2022/06/28 14:44:19;;;;;;;;;;;;;;;;;;4968347;28;19914;-93
2022/06/28 14:49:54;;;;;;;;;;;;;;;;;;4979871;28;19993;-86
2022/06/28 14:52:26;;;;;;;;;;;;;;;;;;4953480;28;19968;-88
2022/06/28 14:54:52;;;;;;;;;;;;;;;;;;4982322;28;20374;-86
2022/06/28 14:57:18;;;;;;;;;;;;;;;;;;4983260;28;19921;-89
2022/06/28 14:59:49;;;;;;;;;;;;;;;;;;4951935;28;19921;-87
2022/06/28 15:02:40;;;;;;;;;;;;;;;;;;4981803;28;19914;-87
2022/06/28 15:05:15;;;;;;;;;;;;;;;;;;4979875;28;19914;-88
2022/06/28 15:07:44;;;;;;;;;;;;;;;;;;4949184;28;19961;-86
2022/06/28 15:10:10;;;;;;;;;;;;;;;;;;4978868;28;19914;-87
2022/06/28 15:12:42;;;;;;;;;;;;;;;;;;4966215;28;20021;-88
2022/06/28 15:15:08;;;;;;;;;;;;;;;;;;4946506;28;20015;-88
2022/06/28 15:17:34;;;;;;;;;;;;;;;;;;4963131;28;20373;-87
2022/06/28 15:19:59;;;;;;;;;;;;;;;;;;4964887;28;20388;-87
2022/06/28 15:30:54;;;;;;;;;;;;;;;;;;4979848;28;20226;-90
2022/06/28 15:33:31;;;;;;;;;;;;;;;;;;4982646;28;19914;-90
2022/06/28 15:35:59;;;;;;;;;;;;;;;;;;4966123;28;19925;-90
2022/06/28 15:38:24;;;;;;;;;;;;;;;;;;4967248;28;20432;-90
2022/06/28 15:40:57;;;;;;;;;;;;;;;;;;4964607;28;20004;-90
2022/06/28 15:43:23;;;;;;;;;;;;;;;;;;4964714;28;20340;-90
2022/06/28 15:45:49;;;;;;;;;;;;;;;;;;4964257;28;19914;-90
2022/06/28 15:48:14;;;;;;;;;;;;;;;;;;4959891;28;19917;-91
2022/06/28 15:50:40;;;;;;;;;;;;;;;;;;4942821;28;19921;-90
2022/06/28 15:53:08;;;;;;;;;;;;;;;;;;4974648;28;19995;-91
2022/06/28 15:55:33;;;;;;;;;;;;;;;;;;4973130;28;19993;-89
2022/06/28 15:58:00;;;;;;;;;;;;;;;;;;4959366;28;19956;-89
2022/06/28 16:00:45;;;;;;;;;;;;;;;;;;4960511;28;19949;-85
2022/06/28 16:03:11;;;;;;;;;;;;;;;;;;4974647;28;19914;-86
2022/06/28 16:05:36;;;;;;;;;;;;;;;;;;4973791;28;20301;-85
2022/06/28 16:08:05;;;;;;;;;;;;;;;;;;4976064;28;20337;-85
2022/06/28 16:10:34;;;;;;;;;;;;;;;;;;4958232;28;19914;-84
2022/06/28 16:13:03;;;;;;;;;;;;;;;;;;4958188;28;19941;-85
2022/06/28 16:15:28;;;;;;;;;;;;;;;;;;4973979;28;19918;-86
2022/06/28 16:17:55;;;;;;;;;;;;;;;;;;4960063;28;20005;-86
2022/06/28 16:20:23;;;;;;;;;;;;;;;;;;4959214;28;19932;-85
2022/06/28 16:22:49;;;;;;;;;;;;;;;;;;4991170;28;20374;-85
2022/06/28 16:25:14;;;;;;;;;;;;;;;;;;4957870;28;19914;-85
2022/06/28 16:27:40;;;;;;;;;;;;;;;;;;4957817;28;19920;-86
2022/06/28 16:30:05;;;;;;;;;;;;;;;;;;4975563;28;20373;-84
2022/06/28 16:32:30;;;;;;;;;;;;;;;;;;4973180;28;19910;-84
2022/06/28 16:34:59;;;;;;;;;;;;;;;;;;4973786;28;19957;-86
2022/06/28 16:37:27;;;;;;;;;;;;;;;;;;4957368;28;19926;-86
2022/06/28 16:39:53;;;;;;;;;;;;;;;;;;4957267;28;19926;-86
2022/06/28 16:42:19;;;;;;;;;;;;;;;;;;4974238;28;19922;-87
2022/06/28 16:44:49;;;;;;;;;;;;;;;;;;4942025;28;19914;-86
2022/06/28 16:47:15;;;;;;;;;;;;;;;;;;4976367;28;19914;-86
2022/06/28 16:49:40;;;;;;;;;;;;;;;;;;5008690;28;19914;-86
2022/06/28 16:52:05;;;;;;;;;;;;;;;;;;4977071;28;19914;-87
2022/06/28 16:54:31;;;;;;;;;;;;;;;;;;4993350;28;19918;-84
2022/06/28 16:56:57;;;;;;;;;;;;;;;;;;4993167;28;19914;-85
2022/06/28 16:59:26;;;;;;;;;;;;;;;;;;4976223;28;20385;-85
2022/06/28 17:01:51;;;;;;;;;;;;;;;;;;4991409;28;19918;-87
2022/06/28 17:04:17;;;;;;;;;;;;;;;;;;4992709;28;19914;-85
2022/06/28 17:09:27;;;;;;;;;;;;;;;;;;4997509;28;19949;-88
2022/06/28 17:11:52;;;;;;;;;;;;;;;;;;4992483;28;19980;-87
2022/06/28 17:14:17;;;;;;;;;;;;;;;;;;5008173;28;19924;-89
2022/06/28 17:16:43;;;;;;;;;;;;;;;;;;4992631;28;19984;-87
2022/06/28 17:19:08;;;;;;;;;;;;;;;;;;5007964;28;19917;-86
2022/06/28 17:21:34;;;;;;;;;;;;;;;;;;5008513;28;20192;-88